Time;durP1;ratioP1;P1;durP2;ratioP2;P2;SDS_P1;SDS_P2;PMS_P1;PMS_P2;Temp;Humidity;BMP_temperature;BMP_pressure;BME280_temperature;BME280_humidity;BME280_pressure;Samples;Min_cycle;Max_cycle;Signal;HPM_P1;HPM_P2
2023/04/17 00:01:13;;;;;;;107.63;32.33;;;9.80;99.90;;;;;;6281361;28;20053;-79
2023/04/17 00:04:15;;;;;;;109.93;34.53;;;9.70;99.90;;;;;;6281620;28;20055;-80
2023/04/17 00:07:21;;;;;;;114.25;39.88;;;9.70;99.90;;;;;;6278797;28;20052;-80
2023/04/17 00:10:22;;;;;;;107.00;40.10;;;9.70;99.90;;;;;;6277329;28;20057;-80
2023/04/17 00:13:25;;;;;;;115.68;41.63;;;9.80;99.90;;;;;;6275987;28;20053;-80
2023/04/17 00:16:27;;;;;;;111.47;44.50;;;9.80;99.90;;;;;;6274437;28;20056;-79
2023/04/17 00:19:29;;;;;;;108.47;43.42;;;9.80;99.90;;;;;;6276312;28;20045;-79
2023/04/17 00:22:30;;;;;;;97.00;42.45;;;9.80;99.90;;;;;;6275808;28;20502;-79
2023/04/17 00:25:32;;;;;;;109.97;42.78;;;9.80;99.90;;;;;;6276547;28;20048;-79
2023/04/17 00:28:35;;;;;;;102.55;44.72;;;9.80;99.90;;;;;;6275486;28;20525;-78
2023/04/17 00:31:37;;;;;;;115.78;46.80;;;9.80;99.90;;;;;;6275204;28;20053;-78
2023/04/17 00:34:39;;;;;;;104.45;43.95;;;9.80;99.90;;;;;;6274234;28;20052;-78
2023/04/17 00:37:41;;;;;;;116.22;45.35;;;9.80;99.90;;;;;;6275699;28;20048;-78
2023/04/17 00:40:44;;;;;;;109.15;43.95;;;9.80;99.90;;;;;;6275194;28;20056;-78
2023/04/17 00:43:47;;;;;;;107.22;45.22;;;9.70;99.90;;;;;;6274256;28;20045;-78
2023/04/17 00:46:48;;;;;;;103.20;41.83;;;9.70;99.90;;;;;;6274998;28;20069;-79
2023/04/17 00:49:50;;;;;;;106.10;43.30;;;9.70;99.90;;;;;;6275435;28;20049;-79
2023/04/17 00:52:52;;;;;;;103.55;43.30;;;9.70;99.90;;;;;;6274246;28;20052;-78
2023/04/17 00:55:55;;;;;;;107.70;43.10;;;9.70;99.90;;;;;;6274665;28;20045;-78
2023/04/17 00:59:01;;;;;;;101.70;41.92;;;9.70;99.90;;;;;;6275234;28;20045;-79
2023/04/17 01:02:03;;;;;;;102.35;43.10;;;9.60;99.90;;;;;;6274468;28;20426;-79
2023/04/17 01:05:05;;;;;;;104.75;42.85;;;9.60;99.90;;;;;;6274545;28;20463;-78
2023/04/17 01:08:06;;;;;;;104.03;41.00;;;9.60;99.90;;;;;;6273773;28;20048;-78
2023/04/17 01:11:08;;;;;;;103.53;39.22;;;9.60;99.90;;;;;;6272384;28;20507;-78
2023/04/17 01:14:11;;;;;;;91.40;38.13;;;9.50;99.90;;;;;;6272094;28;20060;-78
2023/04/17 01:17:14;;;;;;;90.35;39.42;;;9.50;99.90;;;;;;6272821;28;20049;-78
2023/04/17 01:20:15;;;;;;;101.82;40.45;;;9.50;99.90;;;;;;6272137;28;20041;-79
2023/04/17 01:23:17;;;;;;;102.68;38.25;;;9.50;99.90;;;;;;6273829;28;20049;-79
2023/04/17 01:26:21;;;;;;;96.80;37.60;;;9.50;99.90;;;;;;6272431;28;20411;-79
2023/04/17 01:29:23;;;;;;;95.95;33.03;;;9.50;99.90;;;;;;6274318;28;20048;-79
2023/04/17 01:32:25;;;;;;;86.85;35.65;;;9.50;99.90;;;;;;6273303;28;20048;-78
2023/04/17 01:35:27;;;;;;;95.75;34.78;;;9.40;99.90;;;;;;6273156;28;20048;-79
2023/04/17 01:38:29;;;;;;;99.68;35.13;;;9.50;99.90;;;;;;6275168;28;20049;-79
2023/04/17 01:41:32;;;;;;;82.40;34.72;;;9.50;99.90;;;;;;6274369;28;20107;-79
2023/04/17 01:44:36;;;;;;;92.22;36.33;;;9.50;99.90;;;;;;6273293;28;20052;-78
2023/04/17 01:47:37;;;;;;;98.85;40.90;;;9.40;99.90;;;;;;6273955;28;20127;-78
2023/04/17 01:50:39;;;;;;;91.45;38.65;;;9.40;99.90;;;;;;6272361;28;20045;-79
2023/04/17 01:53:41;;;;;;;95.75;37.83;;;9.40;99.90;;;;;;6273073;28;20059;-78
2023/04/17 01:56:44;;;;;;;76.78;36.47;;;9.40;99.90;;;;;;6271802;28;20131;-78
2023/04/17 01:59:45;;;;;;;90.75;38.55;;;9.40;99.90;;;;;;6271017;28;20048;-78
2023/04/17 02:02:47;;;;;;;96.85;40.80;;;9.40;99.90;;;;;;6271476;28;20045;-78
2023/04/17 02:05:49;;;;;;;101.57;43.63;;;9.30;99.90;;;;;;6271962;28;20049;-78
2023/04/17 02:08:50;;;;;;;99.82;41.20;;;9.30;99.90;;;;;;6270713;28;20541;-78
2023/04/17 02:11:53;;;;;;;92.13;38.08;;;9.30;99.90;;;;;;6271304;28;20048;-78
2023/04/17 02:14:59;;;;;;;101.32;41.33;;;9.20;99.90;;;;;;6271391;28;20043;-77
2023/04/17 02:18:02;;;;;;;91.65;40.67;;;9.20;99.90;;;;;;6271461;28;20049;-78
2023/04/17 02:21:03;;;;;;;103.20;40.15;;;9.20;99.90;;;;;;6271488;28;20041;-78
2023/04/17 02:24:06;;;;;;;97.63;41.28;;;9.30;99.90;;;;;;6270658;28;20045;-78
2023/04/17 02:27:09;;;;;;;94.72;38.40;;;9.20;99.90;;;;;;6270664;28;20053;-78
2023/04/17 02:30:12;;;;;;;92.60;38.70;;;9.30;99.90;;;;;;6270897;28;20045;-77
2023/04/17 02:33:13;;;;;;;95.50;40.28;;;9.30;99.90;;;;;;6271073;28;20487;-78
2023/04/17 02:36:15;;;;;;;103.80;38.88;;;9.20;99.90;;;;;;6271008;28;20048;-77
2023/04/17 02:39:17;;;;;;;101.88;42.83;;;9.20;99.90;;;;;;6271123;28;20419;-78
2023/04/17 02:42:20;;;;;;;97.53;39.83;;;9.20;99.90;;;;;;6270937;28;20049;-79
2023/04/17 02:45:22;;;;;;;110.20;42.22;;;9.30;99.90;;;;;;6271612;28;20052;-78
2023/04/17 02:48:23;;;;;;;105.88;43.30;;;9.30;99.90;;;;;;6270828;28;20129;-78
2023/04/17 02:51:25;;;;;;;108.82;41.92;;;9.30;99.90;;;;;;6271188;28;20052;-78
2023/04/17 02:54:27;;;;;;;102.75;42.70;;;9.30;99.90;;;;;;6271372;28;20045;-79
2023/04/17 02:57:30;;;;;;;88.93;37.65;;;9.30;99.90;;;;;;6271912;28;20053;-78
2023/04/17 03:00:31;;;;;;;102.35;38.97;;;9.30;99.90;;;;;;6271203;28;20052;-78
2023/04/17 03:03:33;;;;;;;101.45;38.15;;;9.30;99.90;;;;;;6270415;28;20045;-78
2023/04/17 03:06:35;;;;;;;90.78;41.22;;;9.30;99.90;;;;;;6273217;28;20037;-78
2023/04/17 03:09:37;;;;;;;103.72;44.45;;;9.40;99.90;;;;;;6276650;28;20056;-78
2023/04/17 03:12:40;;;;;;;111.13;43.40;;;9.40;99.90;;;;;;6271570;28;20049;-78
2023/04/17 03:15:42;;;;;;;103.50;40.83;;;9.40;99.90;;;;;;6271115;28;20044;-79
2023/04/17 03:18:44;;;;;;;97.05;38.75;;;9.40;99.90;;;;;;6270773;28;20044;-77
2023/04/17 03:21:45;;;;;;;106.65;41.03;;;9.40;99.90;;;;;;6270917;28;20045;-78
2023/04/17 03:24:47;;;;;;;99.07;38.40;;;9.40;99.90;;;;;;6270480;28;20053;-79
2023/04/17 03:27:50;;;;;;;117.07;43.95;;;9.40;99.90;;;;;;6270431;28;20092;-78
2023/04/17 03:30:53;;;;;;;104.90;43.63;;;9.40;99.90;;;;;;6270294;28;20419;-77
2023/04/17 03:33:55;;;;;;;109.90;44.03;;;9.40;99.90;;;;;;6270547;28;20056;-78
2023/04/17 03:36:57;;;;;;;93.40;37.78;;;9.40;99.90;;;;;;6270421;28;20056;-78
2023/04/17 03:39:59;;;;;;;112.72;44.95;;;9.30;99.90;;;;;;6270501;28;20056;-78
2023/04/17 03:43:02;;;;;;;116.72;41.28;;;9.30;99.90;;;;;;6273067;28;20048;-78
2023/04/17 03:46:04;;;;;;;115.10;44.55;;;9.30;99.90;;;;;;6275976;28;20056;-78
2023/04/17 03:49:06;;;;;;;100.25;39.53;;;9.30;99.90;;;;;;6275900;28;20526;-78
2023/04/17 03:52:07;;;;;;;97.50;43.45;;;9.30;99.90;;;;;;6275788;28;20052;-78
2023/04/17 03:55:10;;;;;;;96.10;40.95;;;9.30;99.90;;;;;;6275435;28;20048;-78
2023/04/17 03:58:13;;;;;;;96.50;43.08;;;9.30;99.90;;;;;;6275031;28;20072;-79
2023/04/17 04:01:15;;;;;;;95.50;42.00;;;9.30;99.90;;;;;;6276135;28;20056;-80
2023/04/17 04:04:16;;;;;;;106.63;41.53;;;9.30;99.90;;;;;;6277318;28;20049;-80
2023/04/17 04:07:18;;;;;;;92.15;40.55;;;9.30;99.90;;;;;;6276283;28;20438;-81
2023/04/17 04:10:20;;;;;;;106.05;41.65;;;9.30;99.90;;;;;;6276261;28;20516;-80
2023/04/17 04:13:23;;;;;;;108.70;41.53;;;9.30;99.90;;;;;;6276796;28;20123;-80
2023/04/17 04:16:26;;;;;;;110.28;44.13;;;9.30;99.90;;;;;;6276186;28;20056;-79
2023/04/17 04:19:27;;;;;;;110.57;45.33;;;9.30;99.90;;;;;;6276992;28;20049;-79
2023/04/17 04:22:29;;;;;;;93.70;40.53;;;9.30;99.90;;;;;;6275789;28;20422;-79
2023/04/17 04:25:31;;;;;;;103.00;40.85;;;9.40;99.90;;;;;;6276962;28;20045;-79
2023/04/17 04:28:34;;;;;;;106.00;41.38;;;9.40;99.90;;;;;;6275963;28;20052;-79
2023/04/17 04:31:36;;;;;;;92.65;39.22;;;9.40;99.90;;;;;;6275901;28;20103;-79
2023/04/17 04:34:40;;;;;;;99.38;43.10;;;9.40;99.90;;;;;;6276089;28;20111;-79
2023/04/17 04:37:45;;;;;;;90.32;39.78;;;9.40;99.90;;;;;;6276427;28;20045;-80
2023/04/17 04:40:48;;;;;;;83.35;38.55;;;9.40;99.90;;;;;;6275976;28;20049;-80
2023/04/17 04:43:51;;;;;;;98.07;42.38;;;9.40;99.90;;;;;;6275876;28;20068;-80
2023/04/17 04:46:54;;;;;;;103.25;41.63;;;9.40;99.90;;;;;;6275861;28;20048;-80
2023/04/17 04:49:55;;;;;;;87.22;39.42;;;9.40;99.90;;;;;;6275944;28;20064;-80
2023/04/17 04:52:57;;;;;;;88.05;38.58;;;9.40;99.90;;;;;;6275339;28;20049;-79
2023/04/17 04:55:59;;;;;;;102.25;40.58;;;9.40;99.90;;;;;;6277033;28;20040;-79
2023/04/17 04:59:02;;;;;;;82.78;40.63;;;9.40;99.90;;;;;;6277835;28;20147;-80
2023/04/17 05:02:04;;;;;;;79.82;38.92;;;9.40;99.90;;;;;;6277280;28;20049;-80
2023/04/17 05:05:08;;;;;;;85.45;37.42;;;9.40;99.90;;;;;;6276377;28;20139;-79
2023/04/17 05:08:09;;;;;;;92.50;39.63;;;9.40;99.90;;;;;;6275820;28;20511;-80
2023/04/17 05:11:11;;;;;;;84.07;38.50;;;9.40;99.90;;;;;;6276290;28;20504;-80
2023/04/17 05:14:14;;;;;;;90.18;40.70;;;9.40;99.90;;;;;;6276237;28;20053;-79
2023/04/17 05:17:16;;;;;;;79.07;37.03;;;9.40;99.90;;;;;;6277318;28;20108;-79
2023/04/17 05:20:18;;;;;;;85.82;38.88;;;9.40;99.90;;;;;;6275965;28;20075;-79
2023/04/17 05:23:21;;;;;;;80.45;36.33;;;9.40;99.90;;;;;;6276104;28;20045;-79
2023/04/17 05:26:23;;;;;;;81.72;39.17;;;9.40;99.90;;;;;;6276609;28;20515;-80
2023/04/17 05:29:26;;;;;;;92.45;39.08;;;9.40;99.90;;;;;;6276445;28;20048;-80
2023/04/17 05:32:29;;;;;;;84.72;41.67;;;9.50;99.90;;;;;;6275607;28;20049;-80
2023/04/17 05:35:32;;;;;;;76.30;37.28;;;9.50;99.90;;;;;;6274998;28;20057;-80
2023/04/17 05:38:33;;;;;;;84.57;38.45;;;9.50;99.90;;;;;;6275696;28;20749;-79
2023/04/17 05:41:35;;;;;;;76.75;38.45;;;9.50;99.90;;;;;;6275513;28;20414;-79
2023/04/17 05:44:38;;;;;;;76.90;37.42;;;9.60;99.90;;;;;;6278593;28;20443;-79
2023/04/17 05:47:40;;;;;;;71.25;38.50;;;9.60;99.90;;;;;;6278728;28;20051;-79
2023/04/17 05:50:42;;;;;;;80.88;37.20;;;9.60;99.90;;;;;;6277263;28;20083;-80
2023/04/17 05:53:44;;;;;;;65.32;35.17;;;9.60;99.90;;;;;;6274961;28;20056;-79
2023/04/17 05:56:46;;;;;;;77.15;35.88;;;9.60;99.90;;;;;;6276495;28;20048;-79
2023/04/17 05:59:49;;;;;;;77.43;40.45;;;9.60;99.90;;;;;;6276256;28;20052;-79
2023/04/17 06:02:51;;;;;;;72.13;36.83;;;9.60;99.90;;;;;;6276301;28;20163;-79
2023/04/17 06:05:52;;;;;;;76.25;36.22;;;9.60;99.90;;;;;;6275465;28;20560;-80
2023/04/17 06:08:54;;;;;;;70.20;35.05;;;9.60;99.90;;;;;;6277022;28;20041;-80
2023/04/17 06:11:56;;;;;;;66.72;35.58;;;9.70;99.90;;;;;;6275720;28;20048;-79
2023/04/17 06:14:59;;;;;;;61.47;34.10;;;9.70;99.90;;;;;;6275489;28;20045;-79
2023/04/17 06:18:01;;;;;;;75.53;35.38;;;9.70;99.90;;;;;;6276065;28;20044;-79
2023/04/17 06:21:02;;;;;;;70.55;35.10;;;9.70;99.90;;;;;;6275548;28;20411;-79
2023/04/17 06:24:04;;;;;;;61.47;33.03;;;9.80;99.90;;;;;;6274903;28;20055;-79
2023/04/17 06:27:06;;;;;;;63.70;34.00;;;9.80;99.90;;;;;;6275212;28;20040;-79
2023/04/17 06:30:10;;;;;;;64.47;34.10;;;9.90;99.90;;;;;;6276239;28;20045;-79
2023/04/17 06:33:12;;;;;;;57.42;31.10;;;9.90;99.90;;;;;;6275348;28;20056;-79
2023/04/17 06:36:13;;;;;;;61.90;32.80;;;9.90;99.90;;;;;;6275338;28;20059;-80
2023/04/17 06:39:15;;;;;;;58.72;31.45;;;9.90;99.90;;;;;;6275132;28;20526;-80
2023/04/17 06:42:17;;;;;;;56.42;33.20;;;10.00;99.90;;;;;;6274393;28;20045;-80
2023/04/17 06:45:20;;;;;;;54.20;34.53;;;10.00;99.90;;;;;;6275315;28;20053;-79
2023/04/17 06:48:21;;;;;;;59.55;32.80;;;10.10;99.90;;;;;;6274691;28;20056;-80
2023/04/17 06:51:24;;;;;;;54.90;31.48;;;10.20;99.90;;;;;;6274750;28;20055;-80
2023/04/17 06:54:26;;;;;;;52.75;30.67;;;10.20;99.90;;;;;;6274455;28;20466;-80
2023/04/17 06:57:28;;;;;;;50.00;30.75;;;10.30;99.90;;;;;;6275243;28;20140;-80
2023/04/17 07:00:31;;;;;;;49.50;31.35;;;10.40;99.90;;;;;;6274548;28;20569;-80
2023/04/17 07:03:32;;;;;;;45.70;28.25;;;10.40;99.90;;;;;;6274018;28;20415;-80
2023/04/17 07:06:35;;;;;;;45.80;30.20;;;10.50;99.90;;;;;;6274842;28;20526;-80
2023/04/17 07:09:36;;;;;;;40.40;23.92;;;10.60;99.90;;;;;;6275108;28;20049;-80
2023/04/17 07:12:38;;;;;;;44.75;27.15;;;10.60;99.90;;;;;;6273635;28;20052;-80
2023/04/17 07:15:41;;;;;;;38.78;26.83;;;10.50;99.90;;;;;;6273598;28;20060;-80
2023/04/17 07:18:43;;;;;;;39.60;24.67;;;10.50;99.90;;;;;;6280449;28;20051;-80
2023/04/17 07:21:45;;;;;;;35.75;24.65;;;10.50;99.90;;;;;;6280148;28;20051;-82
2023/04/17 07:24:46;;;;;;;33.03;24.42;;;10.50;99.90;;;;;;6278859;28;20104;-80
2023/04/17 07:27:49;;;;;;;35.03;25.15;;;10.50;99.90;;;;;;6279494;28;20519;-79
2023/04/17 07:30:53;;;;;;;33.42;24.80;;;10.50;99.90;;;;;;6279624;28;20098;-80
2023/04/17 07:33:55;;;;;;;35.90;25.55;;;10.40;99.90;;;;;;6278801;28;20536;-80
2023/04/17 07:36:57;;;;;;;37.80;26.38;;;10.40;99.90;;;;;;6279800;28;20090;-80
2023/04/17 07:39:59;;;;;;;40.75;25.83;;;10.50;99.90;;;;;;6279488;28;20052;-80
2023/04/17 07:43:00;;;;;;;33.75;24.88;;;10.60;99.90;;;;;;6279444;28;20045;-80
2023/04/17 07:46:03;;;;;;;35.50;24.33;;;10.70;99.90;;;;;;6279078;28;20056;-80
2023/04/17 07:49:05;;;;;;;33.55;23.55;;;10.70;99.90;;;;;;6284131;28;20049;-79
2023/04/17 07:52:07;;;;;;;32.35;23.17;;;10.80;99.90;;;;;;6289416;28;20056;-80
2023/04/17 07:55:09;;;;;;;31.63;23.02;;;10.90;99.90;;;;;;6279754;28;20511;-80
2023/04/17 07:58:11;;;;;;;30.27;21.23;;;11.00;99.90;;;;;;6279582;28;20045;-80
2023/04/17 08:01:15;;;;;;;31.65;22.60;;;11.10;99.90;;;;;;6278977;28;20411;-80
2023/04/17 08:04:17;;;;;;;35.13;23.50;;;11.20;99.90;;;;;;6278119;28;20427;-80
2023/04/17 08:07:19;;;;;;;24.70;19.55;;;11.30;99.90;;;;;;6278326;28;20087;-80
2023/04/17 08:10:20;;;;;;;34.17;21.48;;;11.30;99.90;;;;;;6278742;28;20059;-80
2023/04/17 08:13:22;;;;;;;30.98;23.05;;;11.50;99.90;;;;;;6275834;28;20056;-79
2023/04/17 08:16:25;;;;;;;30.80;22.60;;;11.70;99.90;;;;;;6254690;28;20041;-79
2023/04/17 08:19:28;;;;;;;28.30;20.67;;;11.80;99.90;;;;;;6269315;28;20423;-80
2023/04/17 08:22:30;;;;;;;31.95;21.15;;;11.80;99.90;;;;;;6268852;28;20041;-80
2023/04/17 08:25:32;;;;;;;27.45;19.52;;;11.80;99.90;;;;;;6265049;28;20403;-80
2023/04/17 08:28:34;;;;;;;28.85;19.02;;;11.80;99.90;;;;;;6257961;28;20052;-80
2023/04/17 08:31:38;;;;;;;25.83;18.40;;;11.80;99.90;;;;;;6259293;28;20040;-80
2023/04/17 08:34:40;;;;;;;24.48;18.27;;;11.90;99.90;;;;;;6258976;28;20431;-80
2023/04/17 08:37:45;;;;;;;24.73;17.90;;;11.80;99.90;;;;;;6259250;28;20133;-80
2023/04/17 08:40:50;;;;;;;22.08;17.02;;;11.80;99.90;;;;;;6256102;28;20052;-80
2023/04/17 08:43:52;;;;;;;20.33;16.70;;;11.80;99.90;;;;;;6258868;28;20052;-80
2023/04/17 08:46:57;;;;;;;21.20;16.77;;;11.80;99.90;;;;;;6264318;28;20041;-79
2023/04/17 08:50:00;;;;;;;19.85;14.27;;;11.90;99.90;;;;;;6267648;28;20050;-79
2023/04/17 08:53:02;;;;;;;18.13;13.93;;;11.90;99.90;;;;;;6263939;28;20037;-80
2023/04/17 08:56:05;;;;;;;22.92;15.27;;;12.00;99.90;;;;;;6265927;28;20428;-78
2023/04/17 08:59:07;;;;;;;17.08;14.90;;;11.90;99.90;;;;;;6262776;28;20412;-79
2023/04/17 09:02:10;;;;;;;16.85;13.50;;;12.00;99.90;;;;;;6262423;28;20060;-80
2023/04/17 09:05:19;;;;;;;18.90;14.07;;;12.10;99.90;;;;;;6270404;28;20068;-79
2023/04/17 09:08:22;;;;;;;17.33;15.02;;;12.20;99.90;;;;;;6270432;28;20118;-79
2023/04/17 09:11:24;;;;;;;21.80;14.95;;;12.30;99.90;;;;;;6275295;28;20052;-80
2023/04/17 09:14:30;;;;;;;24.95;17.65;;;12.40;99.90;;;;;;6274063;28;20498;-81
2023/04/17 09:17:36;;;;;;;28.02;22.05;;;12.50;99.90;;;;;;6273245;28;20414;-80
2023/04/17 09:20:49;;;;;;;36.20;32.63;;;12.60;99.90;;;;;;6275014;28;20442;-80
2023/04/17 09:23:53;;;;;;;40.58;36.47;;;12.60;99.90;;;;;;6276156;28;20512;-80
2023/04/17 09:26:55;;;;;;;29.88;27.27;;;12.60;99.90;;;;;;6275675;28;20053;-80
2023/04/17 09:29:58;;;;;;;24.20;17.63;;;12.60;99.90;;;;;;6274922;28;20068;-80
2023/04/17 09:33:06;;;;;;;19.45;13.98;;;12.60;99.90;;;;;;6277341;28;20383;-79
2023/04/17 09:36:21;;;;;;;18.70;16.10;;;12.60;99.90;;;;;;6271964;28;20098;-80
2023/04/17 09:39:23;;;;;;;17.83;13.52;;;12.80;99.90;;;;;;6276174;28;20543;-80
2023/04/17 09:42:25;;;;;;;14.88;13.20;;;13.20;99.90;;;;;;6274995;28;20052;-80
2023/04/17 09:45:32;;;;;;;15.05;12.15;;;13.40;99.90;;;;;;6271210;28;20051;-80
2023/04/17 09:48:35;;;;;;;15.20;11.63;;;13.40;99.90;;;;;;6274359;28;20470;-79
2023/04/17 09:51:37;;;;;;;12.73;10.70;;;13.20;99.90;;;;;;6277464;28;20045;-80
2023/04/17 09:54:41;;;;;;;11.48;10.25;;;13.10;99.90;;;;;;6272356;28;20053;-80
2023/04/17 09:57:43;;;;;;;13.98;11.48;;;13.00;99.90;;;;;;6275257;28;20040;-82
2023/04/17 10:00:45;;;;;;;17.42;12.35;;;12.90;99.90;;;;;;6274132;28;20055;-80
2023/04/17 10:03:49;;;;;;;13.30;9.50;;;12.90;99.90;;;;;;6271773;28;20036;-81
2023/04/17 10:06:50;;;;;;;12.95;8.95;;;13.00;99.90;;;;;;6275132;28;20423;-80
2023/04/17 10:09:52;;;;;;;11.07;9.23;;;13.00;99.90;;;;;;6274230;28;20483;-79
2023/04/17 10:12:56;;;;;;;18.83;10.45;;;13.00;99.90;;;;;;6285735;28;20052;-79
2023/04/17 10:15:58;;;;;;;10.63;9.20;;;13.00;99.90;;;;;;6273465;28;20037;-79
2023/04/17 10:19:29;;;;;;;12.15;8.70;;;13.10;99.90;;;;;;6249301;28;20049;-80
2023/04/17 10:22:33;;;;;;;12.52;10.73;;;13.20;99.90;;;;;;6252565;28;20049;-82
2023/04/17 10:25:35;;;;;;;9.50;8.52;;;13.30;99.90;;;;;;6249662;28;20053;-80
2023/04/17 10:28:48;;;;;;;10.50;7.78;;;13.50;99.90;;;;;;6272243;28;20131;-82
2023/04/17 10:32:27;;;;;;;9.15;7.93;;;13.50;99.90;;;;;;6274450;28;20056;-81
2023/04/17 10:35:36;;;;;;;13.95;8.50;;;13.40;99.90;;;;;;6265914;28;20182;-81
2023/04/17 10:38:38;;;;;;;13.07;11.77;;;13.40;99.90;;;;;;6247558;28;20052;-81
2023/04/17 10:42:04;;;;;;;10.48;8.10;;;13.40;99.90;;;;;;6251959;28;20045;-82
2023/04/17 10:45:18;;;;;;;10.27;8.25;;;13.30;99.90;;;;;;6297999;22;20057;-84
2023/04/17 10:48:21;;;;;;;8.10;7.18;;;13.20;99.90;;;;;;6207583;28;20432;-80
2023/04/17 10:51:43;;;;;;;12.35;8.50;;;13.10;99.90;;;;;;6212228;28;20050;-80
2023/04/17 10:55:03;;;;;;;8.82;7.32;;;13.10;99.90;;;;;;6224159;28;20057;-82
2023/04/17 10:58:14;;;;;;;10.00;7.63;;;13.10;99.90;;;;;;6177247;28;20054;-85
2023/04/17 11:01:15;;;;;;;7.55;6.38;;;13.20;99.90;;;;;;6178825;28;20122;-81
2023/04/17 11:04:20;;;;;;;12.43;7.25;;;13.20;99.90;;;;;;6196444;28;20140;-80
2023/04/17 11:07:24;;;;;;;7.10;5.97;;;13.20;99.90;;;;;;6201038;28;20050;-83
2023/04/17 11:10:26;;;;;;;7.40;6.60;;;13.10;99.90;;;;;;6202652;28;20062;-84
2023/04/17 11:13:33;;;;;;;7.95;6.15;;;13.10;99.90;;;;;;6206173;28;20047;-81
2023/04/17 11:16:35;;;;;;;7.55;6.82;;;13.20;99.90;;;;;;6202799;28;20038;-80
2023/04/17 11:19:37;;;;;;;7.80;6.57;;;13.20;99.90;;;;;;6202138;28;20042;-82
2023/04/17 11:22:40;;;;;;;6.72;6.00;;;13.30;99.90;;;;;;6208433;28;20057;-82
2023/04/17 11:25:41;;;;;;;7.57;5.82;;;13.40;99.90;;;;;;6207301;28;20054;-81
2023/04/17 11:28:43;;;;;;;7.95;6.80;;;13.40;99.90;;;;;;6205476;28;20047;-81
2023/04/17 11:31:46;;;;;;;9.10;7.90;;;13.60;99.90;;;;;;6204756;28;20042;-83
2023/04/17 11:34:48;;;;;;;8.23;7.43;;;13.80;99.90;;;;;;6205419;28;20038;-80
2023/04/17 11:38:19;;;;;;;7.25;6.55;;;13.90;99.90;;;;;;6206957;28;20053;-81
2023/04/17 11:41:21;;;;;;;5.43;4.93;;;14.00;99.90;;;;;;6203430;28;20054;-82
2023/04/17 11:44:25;;;;;;;7.43;5.25;;;14.00;99.90;;;;;;6203983;28;20069;-84
2023/04/17 11:47:27;;;;;;;5.13;4.63;;;14.00;99.90;;;;;;6205812;28;20045;-84
2023/04/17 11:50:30;;;;;;;6.55;5.10;;;14.00;99.90;;;;;;6193324;28;20058;-84
2023/04/17 11:53:36;;;;;;;5.78;5.00;;;13.90;99.90;;;;;;6197851;28;20735;-84
2023/04/17 11:56:38;;;;;;;5.53;4.90;;;14.00;99.90;;;;;;6200271;28;20042;-86
2023/04/17 11:59:43;;;;;;;7.10;4.63;;;14.00;99.90;;;;;;6195948;28;20061;-83
2023/04/17 12:02:45;;;;;;;6.55;4.85;;;14.10;99.90;;;;;;6195230;28;20692;-84
2023/04/17 12:05:58;;;;;;;5.88;5.10;;;14.10;99.90;;;;;;6203539;28;20061;-83
2023/04/17 12:09:01;;;;;;;4.78;4.10;;;14.20;99.90;;;;;;6205030;28;20054;-82
2023/04/17 12:12:05;;;;;;;7.45;4.72;;;14.20;99.90;;;;;;6206533;28;20057;-84
2023/04/17 12:15:07;;;;;;;6.38;4.95;;;14.20;99.90;;;;;;6205256;28;20105;-82
2023/04/17 12:18:09;;;;;;;5.95;5.15;;;14.40;99.90;;;;;;6208511;28;20047;-81
2023/04/17 12:21:12;;;;;;;4.63;4.18;;;14.50;99.90;;;;;;6199897;28;20058;-80
2023/04/17 12:24:16;;;;;;;5.70;4.95;;;14.70;99.90;;;;;;6196781;28;20043;-78
2023/04/17 12:27:27;;;;;;;5.88;3.72;;;14.90;99.90;;;;;;6203305;28;20057;-87
2023/04/17 12:30:29;;;;;;;5.10;4.47;;;15.10;99.90;;;;;;6210004;28;20065;-81
2023/04/17 12:33:31;;;;;;;5.95;5.35;;;15.20;99.90;;;;;;6204026;28;20148;-86
2023/04/17 12:36:33;;;;;;;7.63;6.10;;;15.40;99.90;;;;;;6204201;28;20481;-82
2023/04/17 12:39:37;;;;;;;54.17;31.05;;;15.40;99.90;;;;;;6203425;28;21281;-84
2023/04/17 12:42:38;;;;;;;21.02;13.35;;;15.40;99.90;;;;;;6197740;28;20050;-87
2023/04/17 12:45:44;;;;;;;32.83;17.60;;;15.50;99.90;;;;;;6197256;28;20072;-84
2023/04/17 12:48:46;;;;;;;8.73;5.75;;;15.40;99.90;;;;;;6201267;28;20058;-81
2023/04/17 12:51:48;;;;;;;6.50;5.82;;;15.30;99.90;;;;;;6200009;28;20054;-81
2023/04/17 12:54:53;;;;;;;7.85;6.72;;;15.10;99.90;;;;;;6201970;28;20046;-83
2023/04/17 12:57:55;;;;;;;7.00;5.93;;;15.00;99.90;;;;;;6199379;28;20069;-83
2023/04/17 13:00:56;;;;;;;8.27;6.93;;;15.00;99.90;;;;;;6194533;28;20049;-84
2023/04/17 13:03:58;;;;;;;11.48;7.65;;;15.00;99.90;;;;;;6201154;28;20056;-85
2023/04/17 13:07:00;;;;;;;9.75;7.55;;;14.90;99.90;;;;;;6201276;28;20058;-83
2023/04/17 13:10:03;;;;;;;7.53;6.05;;;14.90;99.90;;;;;;6201782;28;20072;-85
2023/04/17 13:13:05;;;;;;;9.07;7.03;;;14.90;99.90;;;;;;6199389;28;20038;-83
2023/04/17 13:16:07;;;;;;;7.68;6.65;;;14.80;99.90;;;;;;6198143;28;20046;-82
2023/04/17 13:19:09;;;;;;;8.55;6.53;;;14.80;99.90;;;;;;6195338;28;21291;-84
2023/04/17 13:22:11;;;;;;;7.35;6.55;;;14.80;99.90;;;;;;6195033;28;20069;-83
2023/04/17 13:25:14;;;;;;;7.95;5.75;;;14.70;99.90;;;;;;6197499;28;20062;-82
2023/04/17 13:28:15;;;;;;;8.48;7.00;;;14.70;99.90;;;;;;6195052;28;20054;-81
2023/04/17 13:31:17;;;;;;;10.48;6.82;;;14.70;99.90;;;;;;6196819;28;20057;-82
2023/04/17 13:34:19;;;;;;;9.25;6.82;;;14.80;99.90;;;;;;6196264;28;20039;-85
2023/04/17 13:37:21;;;;;;;7.80;7.05;;;14.80;99.90;;;;;;6208980;28;20042;-86
2023/04/17 13:40:24;;;;;;;8.48;6.90;;;14.90;99.90;;;;;;6197349;28;20054;-85
2023/04/17 13:43:26;;;;;;;20.42;14.57;;;14.90;99.90;;;;;;6209352;28;20507;-80
2023/04/17 13:46:28;;;;;;;9.32;8.45;;;15.00;99.90;;;;;;6202947;28;20047;-82
2023/04/17 13:49:30;;;;;;;8.85;6.88;;;15.10;99.90;;;;;;6205480;28;20057;-82
2023/04/17 13:52:31;;;;;;;9.50;7.68;;;15.20;99.90;;;;;;6197507;28;20042;-86
2023/04/17 13:55:34;;;;;;;8.07;7.30;;;15.10;99.90;;;;;;6198347;28;20043;-85
2023/04/17 13:58:36;;;;;;;7.80;7.10;;;15.20;99.90;;;;;;6197892;28;20054;-82
2023/04/17 14:01:39;;;;;;;6.85;6.25;;;15.20;99.90;;;;;;6202177;28;20045;-84
2023/04/17 14:04:40;;;;;;;7.75;6.38;;;15.10;99.90;;;;;;6200653;28;20049;-84
2023/04/17 14:07:43;;;;;;;7.28;5.68;;;15.10;99.90;;;;;;6200757;28;20045;-84
2023/04/17 14:10:46;;;;;;;6.97;6.10;;;14.90;99.90;;;;;;6193783;28;20515;-78
2023/04/17 14:13:48;;;;;;;5.45;4.90;;;14.80;99.90;;;;;;6194275;28;20042;-82
2023/04/17 14:16:50;;;;;;;12.25;11.23;;;14.70;99.90;;;;;;6191796;28;20042;-79
2023/04/17 14:19:52;;;;;;;19.77;18.17;;;14.60;99.90;;;;;;6196424;28;20050;-83
2023/04/17 14:22:54;;;;;;;6.80;6.25;;;14.60;99.90;;;;;;6193081;28;20070;-81
2023/04/17 14:25:57;;;;;;;5.40;4.90;;;14.50;99.90;;;;;;6191706;28;20054;-84
2023/04/17 14:28:59;;;;;;;6.50;5.80;;;14.40;99.90;;;;;;6197656;28;20047;-80
2023/04/17 14:32:01;;;;;;;4.82;4.35;;;14.30;99.90;;;;;;6197778;28;20534;-82
2023/04/17 14:35:03;;;;;;;5.05;4.40;;;14.20;99.90;;;;;;6192500;28;20049;-79
2023/04/17 14:38:05;;;;;;;5.93;5.40;;;14.10;99.90;;;;;;6195137;28;20053;-81
2023/04/17 14:41:08;;;;;;;5.30;4.80;;;13.90;99.90;;;;;;6192953;28;20441;-82
2023/04/17 14:44:09;;;;;;;5.15;4.68;;;13.80;99.90;;;;;;6193766;28;20054;-79
2023/04/17 14:47:20;;;;;;;5.35;4.10;;;13.80;99.90;;;;;;6192101;28;20568;-82
2023/04/17 14:50:21;;;;;;;4.97;4.05;;;13.70;99.90;;;;;;6194639;28;20049;-83
2023/04/17 14:53:23;;;;;;;6.22;4.97;;;13.70;99.90;;;;;;6188761;28;20045;-81
2023/04/17 14:56:26;;;;;;;6.18;4.60;;;13.60;99.90;;;;;;6187763;28;20050;-84
2023/04/17 14:59:28;;;;;;;6.55;5.13;;;13.60;99.90;;;;;;6194647;28;20160;-82
2023/04/17 15:02:36;;;;;;;5.65;5.15;;;13.70;99.90;;;;;;6196797;28;20508;-82
2023/04/17 15:05:38;;;;;;;5.40;4.78;;;13.70;99.90;;;;;;6193297;28;20057;-81
2023/04/17 15:08:40;;;;;;;9.13;4.32;;;13.80;99.90;;;;;;6190666;28;20038;-83
2023/04/17 15:11:43;;;;;;;6.50;5.00;;;13.90;99.90;;;;;;6193508;28;20046;-82
2023/04/17 15:14:45;;;;;;;10.57;9.23;;;13.90;99.90;;;;;;6190287;28;20042;-81
2023/04/17 15:17:46;;;;;;;8.05;5.68;;;14.00;99.90;;;;;;6195331;28;20059;-84
2023/04/17 15:20:48;;;;;;;4.75;4.35;;;14.00;99.90;;;;;;6191764;28;20054;-82
2023/04/17 15:23:50;;;;;;;12.00;9.35;;;14.10;99.90;;;;;;6191325;28;20050;-80
2023/04/17 15:26:53;;;;;;;5.43;4.93;;;14.10;99.90;;;;;;6190660;28;20058;-79
2023/04/17 15:29:54;;;;;;;8.00;4.90;;;14.10;99.90;;;;;;6193759;28;20142;-82
2023/04/17 15:32:56;;;;;;;6.30;5.70;;;14.10;99.90;;;;;;6191016;28;20039;-88
2023/04/17 15:35:59;;;;;;;6.30;4.50;;;14.00;99.90;;;;;;6199902;28;20412;-83
2023/04/17 15:39:01;;;;;;;4.85;4.35;;;13.90;99.90;;;;;;6199439;28;20050;-81